sensor_id;sensor_type;location;lat;lon;timestamp;P1;durP1;ratioP1;P2;durP2;ratioP2
71730;SDS011;65964;43.496;3.710;2023-04-01T00:01:33;18.17;;;3.83;;
71730;SDS011;65964;43.496;3.710;2023-04-01T00:03:59;17.67;;;3.60;;
71730;SDS011;65964;43.496;3.710;2023-04-01T00:06:27;16.27;;;3.75;;
71730;SDS011;65964;43.496;3.710;2023-04-01T00:08:53;13.55;;;3.63;;
71730;SDS011;65964;43.496;3.710;2023-04-01T00:11:19;14.40;;;3.35;;
71730;SDS011;65964;43.496;3.710;2023-04-01T00:13:46;16.20;;;3.65;;
71730;SDS011;65964;43.496;3.710;2023-04-01T00:16:12;18.35;;;4.43;;
71730;SDS011;65964;43.496;3.710;2023-04-01T00:18:39;14.68;;;3.10;;
71730;SDS011;65964;43.496;3.710;2023-04-01T00:21:05;16.08;;;3.40;;
71730;SDS011;65964;43.496;3.710;2023-04-01T00:23:31;16.40;;;3.50;;
71730;SDS011;65964;43.496;3.710;2023-04-01T00:26:01;18.02;;;3.47;;
71730;SDS011;65964;43.496;3.710;2023-04-01T00:28:28;15.43;;;4.05;;
71730;SDS011;65964;43.496;3.710;2023-04-01T00:30:54;14.40;;;3.50;;
71730;SDS011;65964;43.496;3.710;2023-04-01T00:33:20;13.40;;;3.40;;
71730;SDS011;65964;43.496;3.710;2023-04-01T00:35:46;15.65;;;3.58;;
71730;SDS011;65964;43.496;3.710;2023-04-01T00:38:12;16.48;;;3.70;;
71730;SDS011;65964;43.496;3.710;2023-04-01T00:40:40;15.20;;;3.10;;
71730;SDS011;65964;43.496;3.710;2023-04-01T00:43:11;13.43;;;3.30;;
71730;SDS011;65964;43.496;3.710;2023-04-01T00:45:39;18.65;;;3.53;;
71730;SDS011;65964;43.496;3.710;2023-04-01T00:48:07;16.27;;;3.67;;
71730;SDS011;65964;43.496;3.710;2023-04-01T00:50:34;13.65;;;3.60;;
71730;SDS011;65964;43.496;3.710;2023-04-01T00:53:01;16.92;;;3.35;;
71730;SDS011;65964;43.496;3.710;2023-04-01T00:55:29;20.65;;;3.88;;
71730;SDS011;65964;43.496;3.710;2023-04-01T00:57:56;15.65;;;3.63;;
71730;SDS011;65964;43.496;3.710;2023-04-01T01:00:24;16.25;;;3.80;;
71730;SDS011;65964;43.496;3.710;2023-04-01T01:02:51;15.32;;;3.42;;
71730;SDS011;65964;43.496;3.710;2023-04-01T01:05:17;16.67;;;3.60;;
71730;SDS011;65964;43.496;3.710;2023-04-01T01:10:19;22.73;;;3.83;;
71730;SDS011;65964;43.496;3.710;2023-04-01T01:15:25;18.10;;;4.45;;
71730;SDS011;65964;43.496;3.710;2023-04-01T01:31:11;17.70;;;3.90;;
71730;SDS011;65964;43.496;3.710;2023-04-01T01:36:06;17.88;;;4.00;;
71730;SDS011;65964;43.496;3.710;2023-04-01T01:38:33;18.55;;;3.72;;
71730;SDS011;65964;43.496;3.710;2023-04-01T01:41:00;17.40;;;3.53;;
71730;SDS011;65964;43.496;3.710;2023-04-01T01:43:29;15.90;;;4.03;;
71730;SDS011;65964;43.496;3.710;2023-04-01T01:45:57;14.82;;;3.80;;
71730;SDS011;65964;43.496;3.710;2023-04-01T01:48:24;18.70;;;4.32;;
71730;SDS011;65964;43.496;3.710;2023-04-01T01:50:52;17.05;;;3.33;;
71730;SDS011;65964;43.496;3.710;2023-04-01T01:53:18;20.45;;;4.22;;
71730;SDS011;65964;43.496;3.710;2023-04-01T01:55:45;18.75;;;3.65;;
71730;SDS011;65964;43.496;3.710;2023-04-01T01:58:19;15.88;;;3.78;;
71730;SDS011;65964;43.496;3.710;2023-04-01T02:00:48;18.95;;;4.10;;
71730;SDS011;65964;43.496;3.710;2023-04-01T02:03:16;17.25;;;3.80;;
71730;SDS011;65964;43.496;3.710;2023-04-01T02:05:42;21.73;;;4.00;;
71730;SDS011;65964;43.496;3.710;2023-04-01T02:08:12;14.90;;;3.60;;
71730;SDS011;65964;43.496;3.710;2023-04-01T02:10:41;20.55;;;3.70;;
71730;SDS011;65964;43.496;3.710;2023-04-01T02:13:12;14.73;;;3.70;;
71730;SDS011;65964;43.496;3.710;2023-04-01T02:15:41;18.55;;;3.95;;
71730;SDS011;65964;43.496;3.710;2023-04-01T02:18:08;18.60;;;4.43;;
71730;SDS011;65964;43.496;3.710;2023-04-01T02:20:35;16.90;;;4.18;;
71730;SDS011;65964;43.496;3.710;2023-04-01T02:23:03;13.88;;;3.42;;
71730;SDS011;65964;43.496;3.710;2023-04-01T02:25:30;17.13;;;3.67;;
71730;SDS011;65964;43.496;3.710;2023-04-01T02:27:59;16.20;;;3.38;;
71730;SDS011;65964;43.496;3.710;2023-04-01T02:30:26;17.23;;;3.42;;
71730;SDS011;65964;43.496;3.710;2023-04-01T02:32:53;14.60;;;3.60;;
71730;SDS011;65964;43.496;3.710;2023-04-01T02:35:20;20.65;;;4.25;;
71730;SDS011;65964;43.496;3.710;2023-04-01T02:37:48;22.52;;;4.05;;
71730;SDS011;65964;43.496;3.710;2023-04-01T02:40:15;16.75;;;3.53;;
71730;SDS011;65964;43.496;3.710;2023-04-01T02:42:41;18.92;;;4.10;;
71730;SDS011;65964;43.496;3.710;2023-04-01T02:45:08;17.13;;;3.75;;
71730;SDS011;65964;43.496;3.710;2023-04-01T02:47:34;18.63;;;4.25;;
71730;SDS011;65964;43.496;3.710;2023-04-01T02:50:00;18.15;;;3.95;;
71730;SDS011;65964;43.496;3.710;2023-04-01T02:52:27;17.52;;;3.85;;
71730;SDS011;65964;43.496;3.710;2023-04-01T02:54:53;16.33;;;3.42;;
71730;SDS011;65964;43.496;3.710;2023-04-01T02:57:20;20.58;;;4.00;;
71730;SDS011;65964;43.496;3.710;2023-04-01T02:59:46;20.65;;;4.32;;
71730;SDS011;65964;43.496;3.710;2023-04-01T03:02:12;15.90;;;3.55;;
71730;SDS011;65964;43.496;3.710;2023-04-01T03:04:38;14.88;;;3.42;;
71730;SDS011;65964;43.496;3.710;2023-04-01T03:07:04;21.58;;;4.32;;
71730;SDS011;65964;43.496;3.710;2023-04-01T03:09:30;27.92;;;5.22;;
71730;SDS011;65964;43.496;3.710;2023-04-01T03:11:56;18.33;;;4.55;;
71730;SDS011;65964;43.496;3.710;2023-04-01T03:14:22;17.30;;;3.67;;
71730;SDS011;65964;43.496;3.710;2023-04-01T03:16:48;17.25;;;4.68;;
71730;SDS011;65964;43.496;3.710;2023-04-01T03:19:14;21.42;;;3.97;;
71730;SDS011;65964;43.496;3.710;2023-04-01T03:21:40;18.10;;;4.20;;
71730;SDS011;65964;43.496;3.710;2023-04-01T03:24:06;18.85;;;4.07;;
71730;SDS011;65964;43.496;3.710;2023-04-01T03:26:33;19.80;;;3.95;;
71730;SDS011;65964;43.496;3.710;2023-04-01T03:28:59;19.65;;;4.10;;
71730;SDS011;65964;43.496;3.710;2023-04-01T03:31:25;22.17;;;4.13;;
71730;SDS011;65964;43.496;3.710;2023-04-01T03:33:51;18.75;;;4.20;;
71730;SDS011;65964;43.496;3.710;2023-04-01T03:36:17;16.60;;;3.67;;
71730;SDS011;65964;43.496;3.710;2023-04-01T03:38:43;19.55;;;4.18;;
71730;SDS011;65964;43.496;3.710;2023-04-01T03:41:16;22.05;;;4.93;;
71730;SDS011;65964;43.496;3.710;2023-04-01T03:43:43;18.45;;;4.20;;
71730;SDS011;65964;43.496;3.710;2023-04-01T03:46:09;18.00;;;3.88;;
71730;SDS011;65964;43.496;3.710;2023-04-01T03:48:35;20.38;;;4.55;;
71730;SDS011;65964;43.496;3.710;2023-04-01T03:51:01;18.23;;;4.30;;
71730;SDS011;65964;43.496;3.710;2023-04-01T03:53:27;26.48;;;5.07;;
71730;SDS011;65964;43.496;3.710;2023-04-01T03:55:53;18.48;;;4.10;;
71730;SDS011;65964;43.496;3.710;2023-04-01T03:58:19;14.80;;;3.65;;
71730;SDS011;65964;43.496;3.710;2023-04-01T04:00:45;25.33;;;4.80;;
71730;SDS011;65964;43.496;3.710;2023-04-01T04:03:12;20.35;;;4.45;;
71730;SDS011;65964;43.496;3.710;2023-04-01T04:05:40;19.33;;;4.05;;
71730;SDS011;65964;43.496;3.710;2023-04-01T04:08:11;19.08;;;4.18;;
71730;SDS011;65964;43.496;3.710;2023-04-01T04:10:37;17.20;;;3.88;;
71730;SDS011;65964;43.496;3.710;2023-04-01T04:13:03;14.02;;;3.78;;
71730;SDS011;65964;43.496;3.710;2023-04-01T04:15:29;16.77;;;3.10;;
71730;SDS011;65964;43.496;3.710;2023-04-01T04:17:55;13.70;;;3.00;;
71730;SDS011;65964;43.496;3.710;2023-04-01T04:20:21;12.88;;;2.65;;
71730;SDS011;65964;43.496;3.710;2023-04-01T04:22:47;12.75;;;3.15;;
71730;SDS011;65964;43.496;3.710;2023-04-01T04:25:13;11.43;;;2.72;;
71730;SDS011;65964;43.496;3.710;2023-04-01T04:27:39;10.95;;;2.78;;
71730;SDS011;65964;43.496;3.710;2023-04-01T04:30:06;10.30;;;3.20;;
71730;SDS011;65964;43.496;3.710;2023-04-01T04:32:33;13.98;;;2.70;;
71730;SDS011;65964;43.496;3.710;2023-04-01T04:34:59;10.45;;;2.55;;
71730;SDS011;65964;43.496;3.710;2023-04-01T04:37:25;11.93;;;2.95;;
71730;SDS011;65964;43.496;3.710;2023-04-01T04:39:51;11.82;;;2.90;;
71730;SDS011;65964;43.496;3.710;2023-04-01T04:42:17;8.85;;;2.42;;
71730;SDS011;65964;43.496;3.710;2023-04-01T04:44:43;9.30;;;2.67;;
71730;SDS011;65964;43.496;3.710;2023-04-01T04:47:09;11.77;;;2.90;;
71730;SDS011;65964;43.496;3.710;2023-04-01T04:49:35;8.48;;;2.45;;
71730;SDS011;65964;43.496;3.710;2023-04-01T04:52:01;9.98;;;2.63;;
71730;SDS011;65964;43.496;3.710;2023-04-01T04:54:27;13.90;;;2.90;;
71730;SDS011;65964;43.496;3.710;2023-04-01T04:56:53;10.82;;;2.88;;
71730;SDS011;65964;43.496;3.710;2023-04-01T04:59:19;12.57;;;2.95;;
71730;SDS011;65964;43.496;3.710;2023-04-01T05:01:45;15.75;;;2.97;;
71730;SDS011;65964;43.496;3.710;2023-04-01T05:04:11;13.35;;;3.22;;
71730;SDS011;65964;43.496;3.710;2023-04-01T05:06:37;9.52;;;2.60;;
71730;SDS011;65964;43.496;3.710;2023-04-01T05:09:03;11.10;;;2.75;;
71730;SDS011;65964;43.496;3.710;2023-04-01T05:11:29;10.65;;;2.60;;
71730;SDS011;65964;43.496;3.710;2023-04-01T05:13:55;9.05;;;2.50;;
71730;SDS011;65964;43.496;3.710;2023-04-01T05:16:21;12.90;;;2.90;;
71730;SDS011;65964;43.496;3.710;2023-04-01T05:18:47;11.90;;;2.88;;
71730;SDS011;65964;43.496;3.710;2023-04-01T05:21:14;12.50;;;2.97;;
71730;SDS011;65964;43.496;3.710;2023-04-01T05:23:40;12.02;;;2.92;;
71730;SDS011;65964;43.496;3.710;2023-04-01T05:26:08;13.07;;;2.95;;
71730;SDS011;65964;43.496;3.710;2023-04-01T05:28:34;9.48;;;2.72;;
71730;SDS011;65964;43.496;3.710;2023-04-01T05:31:00;11.13;;;2.88;;
71730;SDS011;65964;43.496;3.710;2023-04-01T05:33:27;12.45;;;3.08;;
71730;SDS011;65964;43.496;3.710;2023-04-01T05:35:53;10.10;;;2.72;;
71730;SDS011;65964;43.496;3.710;2023-04-01T05:38:19;10.90;;;2.90;;
71730;SDS011;65964;43.496;3.710;2023-04-01T05:40:46;14.55;;;3.13;;
71730;SDS011;65964;43.496;3.710;2023-04-01T05:43:12;16.05;;;3.78;;
71730;SDS011;65964;43.496;3.710;2023-04-01T05:45:38;14.60;;;3.65;;
71730;SDS011;65964;43.496;3.710;2023-04-01T05:48:04;13.90;;;2.72;;
71730;SDS011;65964;43.496;3.710;2023-04-01T05:50:30;16.15;;;3.47;;
71730;SDS011;65964;43.496;3.710;2023-04-01T05:52:57;14.98;;;3.40;;
71730;SDS011;65964;43.496;3.710;2023-04-01T05:55:23;14.27;;;3.10;;
71730;SDS011;65964;43.496;3.710;2023-04-01T05:57:49;15.32;;;3.60;;
71730;SDS011;65964;43.496;3.710;2023-04-01T06:00:15;13.18;;;2.92;;
71730;SDS011;65964;43.496;3.710;2023-04-01T06:02:42;18.20;;;3.47;;
71730;SDS011;65964;43.496;3.710;2023-04-01T06:05:13;15.52;;;3.45;;
71730;SDS011;65964;43.496;3.710;2023-04-01T06:07:39;18.58;;;4.05;;
71730;SDS011;65964;43.496;3.710;2023-04-01T06:10:09;16.00;;;4.28;;
71730;SDS011;65964;43.496;3.710;2023-04-01T06:20:49;14.82;;;3.70;;
71730;SDS011;65964;43.496;3.710;2023-04-01T06:36:11;16.02;;;3.90;;
71730;SDS011;65964;43.496;3.710;2023-04-01T06:43:51;19.05;;;4.30;;
71730;SDS011;65964;43.496;3.710;2023-04-01T06:54:02;16.92;;;3.53;;
71730;SDS011;65964;43.496;3.710;2023-04-01T06:56:29;19.90;;;4.53;;
71730;SDS011;65964;43.496;3.710;2023-04-01T06:59:08;13.32;;;3.42;;
71730;SDS011;65964;43.496;3.710;2023-04-01T07:01:37;15.00;;;3.38;;
71730;SDS011;65964;43.496;3.710;2023-04-01T07:04:14;15.23;;;3.15;;
71730;SDS011;65964;43.496;3.710;2023-04-01T07:06:50;15.07;;;3.75;;
71730;SDS011;65964;43.496;3.710;2023-04-01T07:09:19;12.70;;;3.90;;
71730;SDS011;65964;43.496;3.710;2023-04-01T07:11:46;19.85;;;4.63;;
71730;SDS011;65964;43.496;3.710;2023-04-01T07:16:49;14.02;;;3.55;;
71730;SDS011;65964;43.496;3.710;2023-04-01T07:19:22;14.95;;;3.28;;
71730;SDS011;65964;43.496;3.710;2023-04-01T07:21:51;15.73;;;3.83;;
71730;SDS011;65964;43.496;3.710;2023-04-01T07:26:44;16.42;;;3.55;;
71730;SDS011;65964;43.496;3.710;2023-04-01T07:29:12;17.85;;;3.72;;
71730;SDS011;65964;43.496;3.710;2023-04-01T07:36:37;17.60;;;3.47;;
71730;SDS011;65964;43.496;3.710;2023-04-01T07:49:57;15.60;;;4.05;;
71730;SDS011;65964;43.496;3.710;2023-04-01T07:52:34;15.02;;;3.85;;
71730;SDS011;65964;43.496;3.710;2023-04-01T07:55:22;15.80;;;3.70;;
71730;SDS011;65964;43.496;3.710;2023-04-01T08:00:27;14.50;;;3.28;;
71730;SDS011;65964;43.496;3.710;2023-04-01T08:05:28;16.13;;;3.95;;
71730;SDS011;65964;43.496;3.710;2023-04-01T08:10:55;19.27;;;3.85;;
71730;SDS011;65964;43.496;3.710;2023-04-01T08:20:57;11.40;;;2.60;;
71730;SDS011;65964;43.496;3.710;2023-04-01T08:23:28;12.32;;;3.00;;
71730;SDS011;65964;43.496;3.710;2023-04-01T08:28:24;9.95;;;2.63;;
71730;SDS011;65964;43.496;3.710;2023-04-01T08:31:25;11.88;;;4.43;;
71730;SDS011;65964;43.496;3.710;2023-04-01T08:33:44;14.13;;;3.17;;
71730;SDS011;65964;43.496;3.710;2023-04-01T08:36:19;12.02;;;3.15;;
71730;SDS011;65964;43.496;3.710;2023-04-01T08:38:46;9.82;;;2.78;;
71730;SDS011;65964;43.496;3.710;2023-04-01T08:41:20;12.32;;;2.70;;
71730;SDS011;65964;43.496;3.710;2023-04-01T08:46:40;15.10;;;3.43;;
71730;SDS011;65964;43.496;3.710;2023-04-01T09:00:00;8.40;;;2.55;;
71730;SDS011;65964;43.496;3.710;2023-04-01T09:02:43;6.70;;;2.67;;
71730;SDS011;65964;43.496;3.710;2023-04-01T09:34:24;10.30;;;2.97;;
71730;SDS011;65964;43.496;3.710;2023-04-01T09:45:01;9.77;;;2.83;;
71730;SDS011;65964;43.496;3.710;2023-04-01T09:50:06;8.32;;;3.13;;
71730;SDS011;65964;43.496;3.710;2023-04-01T09:52:44;7.43;;;2.50;;
71730;SDS011;65964;43.496;3.710;2023-04-01T09:57:48;9.73;;;2.75;;
71730;SDS011;65964;43.496;3.710;2023-04-01T10:08:02;9.15;;;2.65;;
71730;SDS011;65964;43.496;3.710;2023-04-01T10:18:44;14.17;;;5.40;;
71730;SDS011;65964;43.496;3.710;2023-04-01T10:24:00;10.85;;;3.35;;
71730;SDS011;65964;43.496;3.710;2023-04-01T10:26:33;11.77;;;3.35;;
71730;SDS011;65964;43.496;3.710;2023-04-01T10:32:01;12.35;;;5.38;;
71730;SDS011;65964;43.496;3.710;2023-04-01T10:37:16;18.23;;;6.63;;
71730;SDS011;65964;43.496;3.710;2023-04-01T10:50:24;18.85;;;7.53;;
71730;SDS011;65964;43.496;3.710;2023-04-01T10:53:11;18.23;;;8.23;;
71730;SDS011;65964;43.496;3.710;2023-04-01T11:29:36;10.23;;;3.03;;
71730;SDS011;65964;43.496;3.710;2023-04-01T11:39:59;15.93;;;3.40;;
71730;SDS011;65964;43.496;3.710;2023-04-01T11:50:44;13.88;;;3.75;;
71730;SDS011;65964;43.496;3.710;2023-04-01T11:55:58;10.97;;;3.00;;
71730;SDS011;65964;43.496;3.710;2023-04-01T11:58:31;10.20;;;2.97;;
71730;SDS011;65964;43.496;3.710;2023-04-01T12:09:03;13.48;;;3.60;;
71730;SDS011;65964;43.496;3.710;2023-04-01T12:16:57;13.48;;;3.22;;
71730;SDS011;65964;43.496;3.710;2023-04-01T12:19:46;12.38;;;3.40;;
71730;SDS011;65964;43.496;3.710;2023-04-01T12:35:27;11.00;;;3.17;;
71730;SDS011;65964;43.496;3.710;2023-04-01T12:40:36;10.32;;;2.90;;
71730;SDS011;65964;43.496;3.710;2023-04-01T12:46:20;15.13;;;3.42;;
71730;SDS011;65964;43.496;3.710;2023-04-01T13:01:48;13.35;;;3.15;;
71730;SDS011;65964;43.496;3.710;2023-04-01T13:09:35;12.73;;;2.80;;
71730;SDS011;65964;43.496;3.710;2023-04-01T13:15:03;10.85;;;3.17;;
71730;SDS011;65964;43.496;3.710;2023-04-01T13:28:06;9.30;;;2.60;;
71730;SDS011;65964;43.496;3.710;2023-04-01T13:30:37;8.80;;;2.45;;
71730;SDS011;65964;43.496;3.710;2023-04-01T13:35:59;6.80;;;2.35;;
71730;SDS011;65964;43.496;3.710;2023-04-01T13:43:39;4.72;;;2.10;;
71730;SDS011;65964;43.496;3.710;2023-04-01T13:48:50;7.05;;;2.08;;
71730;SDS011;65964;43.496;3.710;2023-04-01T14:05:07;4.75;;;1.90;;
71730;SDS011;65964;43.496;3.710;2023-04-01T14:10:21;5.65;;;1.88;;
71730;SDS011;65964;43.496;3.710;2023-04-01T14:15:21;5.90;;;2.10;;
71730;SDS011;65964;43.496;3.710;2023-04-01T14:25:50;9.05;;;2.35;;
71730;SDS011;65964;43.496;3.710;2023-04-01T14:28:30;8.65;;;2.40;;
71730;SDS011;65964;43.496;3.710;2023-04-01T14:36:07;6.88;;;1.80;;
71730;SDS011;65964;43.496;3.710;2023-04-01T14:49:13;5.03;;;1.75;;
71730;SDS011;65964;43.496;3.710;2023-04-01T14:51:41;5.43;;;2.00;;
71730;SDS011;65964;43.496;3.710;2023-04-01T14:57:14;5.75;;;1.80;;
71730;SDS011;65964;43.496;3.710;2023-04-01T14:59:46;6.35;;;2.03;;
71730;SDS011;65964;43.496;3.710;2023-04-01T15:05:15;6.32;;;2.10;;
71730;SDS011;65964;43.496;3.710;2023-04-01T15:13:24;3.57;;;1.90;;
71730;SDS011;65964;43.496;3.710;2023-04-01T15:21:48;6.15;;;2.20;;
71730;SDS011;65964;43.496;3.710;2023-04-01T15:24:07;4.95;;;1.75;;
71730;SDS011;65964;43.496;3.710;2023-04-01T15:29:27;9.68;;;3.72;;
71730;SDS011;65964;43.496;3.710;2023-04-01T15:49:58;5.20;;;2.00;;
71730;SDS011;65964;43.496;3.710;2023-04-01T15:57:32;5.80;;;1.92;;
71730;SDS011;65964;43.496;3.710;2023-04-01T16:00:16;5.18;;;1.58;;
71730;SDS011;65964;43.496;3.710;2023-04-01T16:10:58;4.57;;;1.70;;
71730;SDS011;65964;43.496;3.710;2023-04-01T16:19:02;4.85;;;1.35;;
71730;SDS011;65964;43.496;3.710;2023-04-01T16:21:43;7.68;;;1.73;;
71730;SDS011;65964;43.496;3.710;2023-04-01T16:34:54;4.70;;;1.70;;
71730;SDS011;65964;43.496;3.710;2023-04-01T16:37:29;7.97;;;2.88;;
71730;SDS011;65964;43.496;3.710;2023-04-01T16:47:35;4.65;;;1.35;;
71730;SDS011;65964;43.496;3.710;2023-04-01T16:50:13;3.35;;;1.20;;
71730;SDS011;65964;43.496;3.710;2023-04-01T16:55:43;3.17;;;1.30;;
71730;SDS011;65964;43.496;3.710;2023-04-01T16:58:10;2.40;;;1.40;;
71730;SDS011;65964;43.496;3.710;2023-04-01T17:00:41;2.20;;;1.40;;
71730;SDS011;65964;43.496;3.710;2023-04-01T17:03:12;2.80;;;1.50;;
71730;SDS011;65964;43.496;3.710;2023-04-01T17:08:21;3.78;;;1.67;;
71730;SDS011;65964;43.496;3.710;2023-04-01T17:21:24;2.07;;;1.20;;
71730;SDS011;65964;43.496;3.710;2023-04-01T17:23:52;4.22;;;1.77;;
71730;SDS011;65964;43.496;3.710;2023-04-01T17:26:40;8.60;;;1.98;;
71730;SDS011;65964;43.496;3.710;2023-04-01T17:29:17;3.58;;;1.42;;
71730;SDS011;65964;43.496;3.710;2023-04-01T17:52:12;5.78;;;2.22;;
71730;SDS011;65964;43.496;3.710;2023-04-01T17:57:23;5.90;;;1.63;;
71730;SDS011;65964;43.496;3.710;2023-04-01T18:21:27;6.00;;;1.90;;
71730;SDS011;65964;43.496;3.710;2023-04-01T18:23:58;6.97;;;1.88;;
71730;SDS011;65964;43.496;3.710;2023-04-01T18:28:58;4.45;;;1.70;;
71730;SDS011;65964;43.496;3.710;2023-04-01T18:31:35;5.22;;;1.73;;
71730;SDS011;65964;43.496;3.710;2023-04-01T18:36:39;4.13;;;1.30;;
71730;SDS011;65964;43.496;3.710;2023-04-01T18:47:19;4.40;;;1.83;;
71730;SDS011;65964;43.496;3.710;2023-04-01T18:49:55;3.22;;;1.60;;
71730;SDS011;65964;43.496;3.710;2023-04-01T18:55:18;2.30;;;1.13;;
71730;SDS011;65964;43.496;3.710;2023-04-01T18:57:51;4.32;;;1.35;;
71730;SDS011;65964;43.496;3.710;2023-04-01T19:03:11;2.17;;;1.20;;
71730;SDS011;65964;43.496;3.710;2023-04-01T19:05:42;2.80;;;1.50;;
71730;SDS011;65964;43.496;3.710;2023-04-01T19:13:15;4.53;;;1.70;;
71730;SDS011;65964;43.496;3.710;2023-04-01T19:15:57;7.07;;;3.67;;
71730;SDS011;65964;43.496;3.710;2023-04-01T19:18:33;4.68;;;1.95;;
71730;SDS011;65964;43.496;3.710;2023-04-01T19:21:07;5.15;;;2.00;;
71730;SDS011;65964;43.496;3.710;2023-04-01T19:26:03;5.13;;;1.85;;
71730;SDS011;65964;43.496;3.710;2023-04-01T19:31:24;5.45;;;1.70;;
71730;SDS011;65964;43.496;3.710;2023-04-01T19:33:59;2.50;;;1.40;;
71730;SDS011;65964;43.496;3.710;2023-04-01T19:36:40;5.68;;;1.92;;
71730;SDS011;65964;43.496;3.710;2023-04-01T19:39:20;3.63;;;1.83;;
71730;SDS011;65964;43.496;3.710;2023-04-01T19:44:21;4.72;;;1.98;;
71730;SDS011;65964;43.496;3.710;2023-04-01T19:46:58;3.65;;;1.60;;
71730;SDS011;65964;43.496;3.710;2023-04-01T19:59:39;6.13;;;2.03;;
71730;SDS011;65964;43.496;3.710;2023-04-01T20:04:54;4.72;;;1.63;;
71730;SDS011;65964;43.496;3.710;2023-04-01T20:14:50;7.50;;;3.25;;
71730;SDS011;65964;43.496;3.710;2023-04-01T20:19:59;5.82;;;2.13;;
71730;SDS011;65964;43.496;3.710;2023-04-01T20:24:58;4.60;;;1.52;;
71730;SDS011;65964;43.496;3.710;2023-04-01T20:27:27;5.45;;;1.80;;
71730;SDS011;65964;43.496;3.710;2023-04-01T20:30:00;5.32;;;1.95;;
71730;SDS011;65964;43.496;3.710;2023-04-01T20:35:18;5.40;;;2.00;;
71730;SDS011;65964;43.496;3.710;2023-04-01T20:37:59;9.40;;;3.35;;
71730;SDS011;65964;43.496;3.710;2023-04-01T20:41:32;5.45;;;1.70;;
71730;SDS011;65964;43.496;3.710;2023-04-01T20:43:35;5.88;;;1.75;;
71730;SDS011;65964;43.496;3.710;2023-04-01T20:46:19;4.70;;;1.80;;
71730;SDS011;65964;43.496;3.710;2023-04-01T20:51:24;5.30;;;2.08;;
71730;SDS011;65964;43.496;3.710;2023-04-01T20:54:03;5.25;;;2.17;;
71730;SDS011;65964;43.496;3.710;2023-04-01T20:59:23;5.60;;;1.75;;
71730;SDS011;65964;43.496;3.710;2023-04-01T21:31:05;3.60;;;1.80;;
71730;SDS011;65964;43.496;3.710;2023-04-01T21:51:43;4.80;;;1.80;;
71730;SDS011;65964;43.496;3.710;2023-04-01T22:01:58;2.38;;;1.25;;
71730;SDS011;65964;43.496;3.710;2023-04-01T22:07:11;4.20;;;1.92;;
71730;SDS011;65964;43.496;3.710;2023-04-01T22:09:43;4.80;;;1.77;;
71730;SDS011;65964;43.496;3.710;2023-04-01T22:12:14;3.05;;;1.35;;
71730;SDS011;65964;43.496;3.710;2023-04-01T22:27:35;2.30;;;1.10;;
71730;SDS011;65964;43.496;3.710;2023-04-01T22:37:58;2.13;;;0.70;;
71730;SDS011;65964;43.496;3.710;2023-04-01T22:40:35;1.83;;;0.63;;
71730;SDS011;65964;43.496;3.710;2023-04-01T22:43:10;1.58;;;1.10;;
71730;SDS011;65964;43.496;3.710;2023-04-01T22:45:46;4.28;;;1.33;;
71730;SDS011;65964;43.496;3.710;2023-04-01T22:48:36;3.55;;;1.30;;
71730;SDS011;65964;43.496;3.710;2023-04-01T22:51:17;1.83;;;0.98;;
71730;SDS011;65964;43.496;3.710;2023-04-01T22:56:39;3.17;;;1.10;;
71730;SDS011;65964;43.496;3.710;2023-04-01T22:59:09;1.67;;;0.82;;
71730;SDS011;65964;43.496;3.710;2023-04-01T23:01:42;1.08;;;0.70;;
71730;SDS011;65964;43.496;3.710;2023-04-01T23:04:09;0.88;;;0.55;;
71730;SDS011;65964;43.496;3.710;2023-04-01T23:06:38;1.00;;;0.52;;
71730;SDS011;65964;43.496;3.710;2023-04-01T23:11:49;2.85;;;0.60;;
71730;SDS011;65964;43.496;3.710;2023-04-01T23:16:57;1.40;;;0.82;;
71730;SDS011;65964;43.496;3.710;2023-04-01T23:19:26;1.88;;;0.50;;
71730;SDS011;65964;43.496;3.710;2023-04-01T23:24:38;0.70;;;0.70;;
71730;SDS011;65964;43.496;3.710;2023-04-01T23:27:17;1.42;;;1.23;;
71730;SDS011;65964;43.496;3.710;2023-04-01T23:29:45;0.60;;;0.60;;
71730;SDS011;65964;43.496;3.710;2023-04-01T23:32:18;3.15;;;1.27;;
71730;SDS011;65964;43.496;3.710;2023-04-01T23:34:48;1.60;;;0.80;;
71730;SDS011;65964;43.496;3.710;2023-04-01T23:37:15;0.43;;;0.30;;
71730;SDS011;65964;43.496;3.710;2023-04-01T23:39:43;2.58;;;0.70;;
71730;SDS011;65964;43.496;3.710;2023-04-01T23:44:39;3.83;;;0.60;;
71730;SDS011;65964;43.496;3.710;2023-04-01T23:47:06;1.88;;;0.70;;
71730;SDS011;65964;43.496;3.710;2023-04-01T23:49:41;2.90;;;0.63;;
71730;SDS011;65964;43.496;3.710;2023-04-01T23:52:14;1.00;;;0.80;;
71730;SDS011;65964;43.496;3.710;2023-04-01T23:54:44;0.98;;;0.47;;
71730;SDS011;65964;43.496;3.710;2023-04-01T23:57:18;0.95;;;0.65;;
71730;SDS011;65964;43.496;3.710;2023-04-01T23:59:46;3.05;;;0.90;;
